sensor_id;sensor_type;location;lat;lon;timestamp;pressure;altitude;pressure_sealevel;temperature;humidity
7026;BME280;3554;42.132;24.786;2022-09-30T00:02:27;98897.72;;;19.64;100.00
7026;BME280;3554;42.132;24.786;2022-09-30T00:04:55;98900.50;;;19.62;100.00
7026;BME280;3554;42.132;24.786;2022-09-30T00:07:22;98909.06;;;19.45;100.00
7026;BME280;3554;42.132;24.786;2022-09-30T00:09:49;98908.72;;;19.39;100.00
7026;BME280;3554;42.132;24.786;2022-09-30T00:12:16;98901.56;;;19.50;100.00
7026;BME280;3554;42.132;24.786;2022-09-30T00:14:43;98902.59;;;19.38;100.00
7026;BME280;3554;42.132;24.786;2022-09-30T00:17:10;98903.34;;;19.50;100.00
7026;BME280;3554;42.132;24.786;2022-09-30T00:19:39;98901.56;;;19.50;100.00
7026;BME280;3554;42.132;24.786;2022-09-30T00:22:06;98910.47;;;19.49;100.00
7026;BME280;3554;42.132;24.786;2022-09-30T00:24:33;98904.47;;;19.47;100.00
7026;BME280;3554;42.132;24.786;2022-09-30T00:27:00;98910.47;;;19.49;100.00
7026;BME280;3554;42.132;24.786;2022-09-30T00:29:26;98911.25;;;19.40;100.00
7026;BME280;3554;42.132;24.786;2022-09-30T00:31:54;98920.06;;;19.41;100.00
7026;BME280;3554;42.132;24.786;2022-09-30T00:34:21;98916.75;;;19.48;100.00
7026;BME280;3554;42.132;24.786;2022-09-30T00:36:51;98919.16;;;19.51;100.00
7026;BME280;3554;42.132;24.786;2022-09-30T00:39:20;98916.69;;;19.39;100.00
7026;BME280;3554;42.132;24.786;2022-09-30T00:41:49;98900.44;;;19.32;100.00
7026;BME280;3554;42.132;24.786;2022-09-30T00:44:45;98918.56;;;19.48;100.00
7026;BME280;3554;42.132;24.786;2022-09-30T00:47:36;98916.19;;;19.45;100.00
7026;BME280;3554;42.132;24.786;2022-09-30T00:50:12;98916.31;;;19.43;100.00
7026;BME280;3554;42.132;24.786;2022-09-30T00:52:44;98926.97;;;19.53;100.00
7026;BME280;3554;42.132;24.786;2022-09-30T00:55:21;98923.16;;;19.46;100.00
7026;BME280;3554;42.132;24.786;2022-09-30T00:57:50;98919.72;;;19.34;100.00
7026;BME280;3554;42.132;24.786;2022-09-30T01:00:17;98930.09;;;19.26;100.00
7026;BME280;3554;42.132;24.786;2022-09-30T01:02:45;98925.38;;;19.30;100.00
7026;BME280;3554;42.132;24.786;2022-09-30T01:05:12;98928.81;;;19.20;100.00
7026;BME280;3554;42.132;24.786;2022-09-30T01:07:39;98919.28;;;19.18;100.00
7026;BME280;3554;42.132;24.786;2022-09-30T01:10:08;98935.53;;;19.24;100.00
7026;BME280;3554;42.132;24.786;2022-09-30T01:12:35;98940.97;;;19.23;100.00
7026;BME280;3554;42.132;24.786;2022-09-30T01:15:02;98943.28;;;19.16;100.00
7026;BME280;3554;42.132;24.786;2022-09-30T01:17:38;98935.50;;;19.04;100.00
7026;BME280;3554;42.132;24.786;2022-09-30T01:24:04;98939.16;;;18.92;100.00
7026;BME280;3554;42.132;24.786;2022-09-30T01:33:02;98936.47;;;18.49;100.00
7026;BME280;3554;42.132;24.786;2022-09-30T01:35:38;98933.53;;;18.30;100.00
7026;BME280;3554;42.132;24.786;2022-09-30T01:38:13;98904.88;;;18.13;100.00
7026;BME280;3554;42.132;24.786;2022-09-30T01:40:47;98927.63;;;18.27;100.00
7026;BME280;3554;42.132;24.786;2022-09-30T01:43:23;98919.31;;;18.09;100.00
7026;BME280;3554;42.132;24.786;2022-09-30T01:45:56;98914.28;;;18.06;100.00
7026;BME280;3554;42.132;24.786;2022-09-30T01:48:34;98919.31;;;17.98;100.00
7026;BME280;3554;42.132;24.786;2022-09-30T01:51:06;98916.06;;;18.05;100.00
7026;BME280;3554;42.132;24.786;2022-09-30T01:53:39;98924.16;;;18.26;100.00
7026;BME280;3554;42.132;24.786;2022-09-30T01:56:13;98928.75;;;18.35;100.00
7026;BME280;3554;42.132;24.786;2022-09-30T01:58:45;98939.09;;;18.27;100.00
7026;BME280;3554;42.132;24.786;2022-09-30T02:01:17;98932.34;;;18.23;100.00
7026;BME280;3554;42.132;24.786;2022-09-30T02:03:52;98937.38;;;18.37;100.00
7026;BME280;3554;42.132;24.786;2022-09-30T02:06:24;98927.31;;;18.42;100.00
7026;BME280;3554;42.132;24.786;2022-09-30T02:08:56;98925.75;;;18.51;100.00
7026;BME280;3554;42.132;24.786;2022-09-30T02:11:26;98929.94;;;18.53;100.00
7026;BME280;3554;42.132;24.786;2022-09-30T02:13:58;98933.91;;;18.59;100.00
7026;BME280;3554;42.132;24.786;2022-09-30T02:16:30;98929.84;;;18.44;100.00
7026;BME280;3554;42.132;24.786;2022-09-30T02:19:05;98932.81;;;18.39;100.00
7026;BME280;3554;42.132;24.786;2022-09-30T02:21:38;98942.44;;;18.07;100.00
7026;BME280;3554;42.132;24.786;2022-09-30T02:24:08;98935.22;;;17.87;100.00
7026;BME280;3554;42.132;24.786;2022-09-30T02:26:40;98944.59;;;17.80;100.00
7026;BME280;3554;42.132;24.786;2022-09-30T02:29:11;98923.06;;;17.95;100.00
7026;BME280;3554;42.132;24.786;2022-09-30T02:31:42;98943.16;;;18.09;100.00
7026;BME280;3554;42.132;24.786;2022-09-30T02:34:14;98934.00;;;18.02;100.00
7026;BME280;3554;42.132;24.786;2022-09-30T02:36:45;98923.66;;;17.88;100.00
7026;BME280;3554;42.132;24.786;2022-09-30T02:39:18;98928.72;;;18.02;100.00
7026;BME280;3554;42.132;24.786;2022-09-30T02:41:51;98942.78;;;17.80;100.00
7026;BME280;3554;42.132;24.786;2022-09-30T02:44:20;98943.84;;;17.67;100.00
7026;BME280;3554;42.132;24.786;2022-09-30T02:46:52;98942.56;;;17.83;100.00
7026;BME280;3554;42.132;24.786;2022-09-30T02:49:27;98946.53;;;18.00;100.00
7026;BME280;3554;42.132;24.786;2022-09-30T02:52:09;98940.41;;;17.99;100.00
7026;BME280;3554;42.132;24.786;2022-09-30T02:54:47;98941.72;;;18.05;100.00
7026;BME280;3554;42.132;24.786;2022-09-30T02:57:21;98945.94;;;18.07;100.00
7026;BME280;3554;42.132;24.786;2022-09-30T02:59:50;98946.31;;;18.03;100.00
7026;BME280;3554;42.132;24.786;2022-09-30T03:02:19;98955.69;;;17.96;100.00
7026;BME280;3554;42.132;24.786;2022-09-30T03:04:48;98948.44;;;17.98;100.00
7026;BME280;3554;42.132;24.786;2022-09-30T03:07:15;98950.75;;;18.02;100.00
7026;BME280;3554;42.132;24.786;2022-09-30T03:09:42;98952.19;;;17.95;100.00
7026;BME280;3554;42.132;24.786;2022-09-30T03:12:18;98962.16;;;17.81;100.00
7026;BME280;3554;42.132;24.786;2022-09-30T03:17:58;98961.50;;;17.32;100.00
7026;BME280;3554;42.132;24.786;2022-09-30T03:20:55;98955.53;;;17.17;100.00
7026;BME280;3554;42.132;24.786;2022-09-30T03:23:39;98957.06;;;17.08;100.00
7026;BME280;3554;42.132;24.786;2022-09-30T03:26:21;98943.53;;;17.24;100.00
7026;BME280;3554;42.132;24.786;2022-09-30T03:28:59;98933.88;;;17.12;100.00
7026;BME280;3554;42.132;24.786;2022-09-30T03:31:39;98935.47;;;17.26;100.00
7026;BME280;3554;42.132;24.786;2022-09-30T03:34:14;98944.09;;;17.40;100.00
7026;BME280;3554;42.132;24.786;2022-09-30T03:36:51;98947.66;;;17.39;100.00
7026;BME280;3554;42.132;24.786;2022-09-30T03:39:25;98958.13;;;17.30;100.00
7026;BME280;3554;42.132;24.786;2022-09-30T03:42:01;98970.88;;;17.36;100.00
7026;BME280;3554;42.132;24.786;2022-09-30T03:44:34;98973.63;;;17.34;100.00
7026;BME280;3554;42.132;24.786;2022-09-30T03:47:07;98976.50;;;17.31;100.00
7026;BME280;3554;42.132;24.786;2022-09-30T03:49:38;98978.78;;;17.25;100.00
7026;BME280;3554;42.132;24.786;2022-09-30T03:52:08;98948.78;;;17.13;100.00
7026;BME280;3554;42.132;24.786;2022-09-30T03:54:44;98958.41;;;16.90;100.00
7026;BME280;3554;42.132;24.786;2022-09-30T03:57:12;98948.81;;;16.77;100.00
7026;BME280;3554;42.132;24.786;2022-09-30T03:59:39;98941.25;;;16.96;100.00
7026;BME280;3554;42.132;24.786;2022-09-30T04:02:06;98953.97;;;16.91;100.00
7026;BME280;3554;42.132;24.786;2022-09-30T04:04:34;98953.06;;;17.03;100.00
7026;BME280;3554;42.132;24.786;2022-09-30T04:07:01;98951.97;;;17.05;100.00
7026;BME280;3554;42.132;24.786;2022-09-30T04:09:29;98961.06;;;17.14;100.00
7026;BME280;3554;42.132;24.786;2022-09-30T04:11:56;98954.44;;;17.20;100.00
7026;BME280;3554;42.132;24.786;2022-09-30T04:14:23;98953.31;;;17.11;100.00
7026;BME280;3554;42.132;24.786;2022-09-30T04:16:49;98955.16;;;17.10;100.00
7026;BME280;3554;42.132;24.786;2022-09-30T04:19:16;98956.72;;;17.13;100.00
7026;BME280;3554;42.132;24.786;2022-09-30T04:21:43;98969.94;;;17.13;100.00
7026;BME280;3554;42.132;24.786;2022-09-30T04:24:11;98978.25;;;17.20;100.00
7026;BME280;3554;42.132;24.786;2022-09-30T04:26:39;98980.69;;;17.23;100.00
7026;BME280;3554;42.132;24.786;2022-09-30T04:29:06;98994.53;;;17.26;100.00
7026;BME280;3554;42.132;24.786;2022-09-30T04:31:33;99001.50;;;17.27;100.00
7026;BME280;3554;42.132;24.786;2022-09-30T04:34:00;99007.66;;;17.28;100.00
7026;BME280;3554;42.132;24.786;2022-09-30T04:36:27;98995.81;;;17.21;100.00
7026;BME280;3554;42.132;24.786;2022-09-30T04:38:54;98988.38;;;17.26;100.00
7026;BME280;3554;42.132;24.786;2022-09-30T04:41:21;98988.81;;;17.20;100.00
7026;BME280;3554;42.132;24.786;2022-09-30T04:43:49;98997.50;;;17.22;100.00
7026;BME280;3554;42.132;24.786;2022-09-30T04:46:17;98990.66;;;17.19;100.00
7026;BME280;3554;42.132;24.786;2022-09-30T04:48:46;98993.31;;;17.19;100.00
7026;BME280;3554;42.132;24.786;2022-09-30T04:51:13;98990.22;;;17.12;100.00
7026;BME280;3554;42.132;24.786;2022-09-30T04:53:41;99009.78;;;17.23;100.00
7026;BME280;3554;42.132;24.786;2022-09-30T04:56:08;99021.75;;;17.39;100.00
7026;BME280;3554;42.132;24.786;2022-09-30T04:58:35;99048.41;;;17.72;100.00
7026;BME280;3554;42.132;24.786;2022-09-30T05:01:04;99046.19;;;17.90;100.00
7026;BME280;3554;42.132;24.786;2022-09-30T05:03:32;99068.06;;;18.15;100.00
7026;BME280;3554;42.132;24.786;2022-09-30T05:06:00;99079.03;;;18.22;100.00
7026;BME280;3554;42.132;24.786;2022-09-30T05:08:27;99082.81;;;18.07;100.00
7026;BME280;3554;42.132;24.786;2022-09-30T05:10:55;99070.38;;;18.31;100.00
7026;BME280;3554;42.132;24.786;2022-09-30T05:13:23;98968.22;;;17.94;100.00
7026;BME280;3554;42.132;24.786;2022-09-30T05:15:50;99095.28;;;18.85;100.00
7026;BME280;3554;42.132;24.786;2022-09-30T05:18:18;99100.25;;;19.01;100.00
7026;BME280;3554;42.132;24.786;2022-09-30T05:20:48;99105.66;;;18.88;100.00
7026;BME280;3554;42.132;24.786;2022-09-30T05:23:15;99112.78;;;18.99;100.00
7026;BME280;3554;42.132;24.786;2022-09-30T05:25:42;99123.88;;;19.15;100.00
7026;BME280;3554;42.132;24.786;2022-09-30T05:28:09;99133.16;;;19.32;100.00
7026;BME280;3554;42.132;24.786;2022-09-30T05:30:36;99105.63;;;19.21;100.00
7026;BME280;3554;42.132;24.786;2022-09-30T05:33:04;99124.22;;;19.44;100.00
7026;BME280;3554;42.132;24.786;2022-09-30T05:35:33;99131.06;;;19.57;100.00
7026;BME280;3554;42.132;24.786;2022-09-30T05:38:00;99118.41;;;19.50;100.00
7026;BME280;3554;42.132;24.786;2022-09-30T05:40:27;99122.81;;;19.71;100.00
7026;BME280;3554;42.132;24.786;2022-09-30T05:42:55;99121.63;;;19.96;100.00
7026;BME280;3554;42.132;24.786;2022-09-30T05:45:23;99128.13;;;20.03;100.00
7026;BME280;3554;42.132;24.786;2022-09-30T05:47:50;99139.31;;;19.86;100.00
7026;BME280;3554;42.132;24.786;2022-09-30T05:50:17;99136.97;;;20.03;100.00
7026;BME280;3554;42.132;24.786;2022-09-30T05:52:46;99138.13;;;20.21;100.00
7026;BME280;3554;42.132;24.786;2022-09-30T05:55:14;99136.59;;;20.40;100.00
7026;BME280;3554;42.132;24.786;2022-09-30T05:57:41;99135.84;;;20.58;100.00
7026;BME280;3554;42.132;24.786;2022-09-30T06:00:09;99141.38;;;20.66;100.00
7026;BME280;3554;42.132;24.786;2022-09-30T06:02:36;99140.94;;;20.61;100.00
7026;BME280;3554;42.132;24.786;2022-09-30T06:05:04;99133.19;;;20.58;100.00
7026;BME280;3554;42.132;24.786;2022-09-30T06:07:32;99148.88;;;20.82;100.00
7026;BME280;3554;42.132;24.786;2022-09-30T06:10:00;99155.44;;;20.98;100.00
7026;BME280;3554;42.132;24.786;2022-09-30T06:12:27;99143.16;;;20.86;100.00
7026;BME280;3554;42.132;24.786;2022-09-30T06:14:54;99145.19;;;20.73;100.00
7026;BME280;3554;42.132;24.786;2022-09-30T06:17:21;99145.50;;;20.80;100.00
7026;BME280;3554;42.132;24.786;2022-09-30T06:19:48;99147.59;;;20.76;100.00
7026;BME280;3554;42.132;24.786;2022-09-30T06:22:15;99163.03;;;20.62;100.00
7026;BME280;3554;42.132;24.786;2022-09-30T06:24:42;99163.81;;;20.73;100.00
7026;BME280;3554;42.132;24.786;2022-09-30T06:27:11;99169.97;;;20.74;100.00
7026;BME280;3554;42.132;24.786;2022-09-30T06:29:38;99177.63;;;20.88;100.00
7026;BME280;3554;42.132;24.786;2022-09-30T06:32:05;99174.28;;;20.95;100.00
7026;BME280;3554;42.132;24.786;2022-09-30T06:34:32;99185.16;;;21.03;100.00
7026;BME280;3554;42.132;24.786;2022-09-30T06:36:59;99193.41;;;21.61;100.00
7026;BME280;3554;42.132;24.786;2022-09-30T06:39:25;99194.97;;;21.73;100.00
7026;BME280;3554;42.132;24.786;2022-09-30T06:41:52;99199.00;;;21.97;100.00
7026;BME280;3554;42.132;24.786;2022-09-30T06:44:22;99201.69;;;22.26;100.00
7026;BME280;3554;42.132;24.786;2022-09-30T06:46:48;99217.72;;;22.55;100.00
7026;BME280;3554;42.132;24.786;2022-09-30T06:49:15;99207.75;;;22.57;100.00
7026;BME280;3554;42.132;24.786;2022-09-30T06:51:42;99216.75;;;22.75;100.00
7026;BME280;3554;42.132;24.786;2022-09-30T06:54:09;99212.06;;;22.86;100.00
7026;BME280;3554;42.132;24.786;2022-09-30T06:56:36;99201.34;;;23.05;100.00
7026;BME280;3554;42.132;24.786;2022-09-30T06:59:03;99198.97;;;23.02;100.00
7026;BME280;3554;42.132;24.786;2022-09-30T07:01:31;99204.25;;;23.21;100.00
7026;BME280;3554;42.132;24.786;2022-09-30T07:03:58;99208.34;;;23.16;100.00
7026;BME280;3554;42.132;24.786;2022-09-30T07:06:25;99213.03;;;23.04;100.00
7026;BME280;3554;42.132;24.786;2022-09-30T07:08:52;99211.22;;;22.86;100.00
7026;BME280;3554;42.132;24.786;2022-09-30T07:11:21;99108.06;;;22.10;100.00
7026;BME280;3554;42.132;24.786;2022-09-30T07:13:48;99222.34;;;22.91;100.00
7026;BME280;3554;42.132;24.786;2022-09-30T07:16:16;99223.44;;;22.98;100.00
7026;BME280;3554;42.132;24.786;2022-09-30T07:18:45;99229.72;;;23.16;100.00
7026;BME280;3554;42.132;24.786;2022-09-30T07:21:13;99225.72;;;22.83;100.00
7026;BME280;3554;42.132;24.786;2022-09-30T07:23:40;99242.50;;;23.22;100.00
7026;BME280;3554;42.132;24.786;2022-09-30T07:26:10;99235.69;;;23.47;100.00
7026;BME280;3554;42.132;24.786;2022-09-30T07:28:37;99208.03;;;23.38;100.00
7026;BME280;3554;42.132;24.786;2022-09-30T07:31:07;99227.78;;;23.55;100.00
7026;BME280;3554;42.132;24.786;2022-09-30T07:33:37;99239.31;;;23.55;100.00
7026;BME280;3554;42.132;24.786;2022-09-30T07:36:06;99210.34;;;23.04;100.00
7026;BME280;3554;42.132;24.786;2022-09-30T07:38:35;99240.69;;;23.22;100.00
7026;BME280;3554;42.132;24.786;2022-09-30T07:41:05;99242.91;;;23.37;100.00
7026;BME280;3554;42.132;24.786;2022-09-30T07:43:33;99241.31;;;23.53;100.00
7026;BME280;3554;42.132;24.786;2022-09-30T07:46:05;99246.19;;;23.67;100.00
7026;BME280;3554;42.132;24.786;2022-09-30T07:48:32;99238.59;;;23.90;100.00
7026;BME280;3554;42.132;24.786;2022-09-30T07:51:18;99263.97;;;24.13;100.00
7026;BME280;3554;42.132;24.786;2022-09-30T07:53:48;99262.19;;;24.04;100.00
7026;BME280;3554;42.132;24.786;2022-09-30T07:56:15;99261.94;;;23.97;100.00
7026;BME280;3554;42.132;24.786;2022-09-30T07:58:43;99268.09;;;23.71;100.00
7026;BME280;3554;42.132;24.786;2022-09-30T08:01:10;99266.09;;;23.46;100.00
7026;BME280;3554;42.132;24.786;2022-09-30T08:03:39;99261.94;;;23.97;100.00
7026;BME280;3554;42.132;24.786;2022-09-30T08:06:08;99271.25;;;24.20;100.00
7026;BME280;3554;42.132;24.786;2022-09-30T08:08:36;99272.41;;;24.53;100.00
7026;BME280;3554;42.132;24.786;2022-09-30T08:11:04;99279.38;;;24.46;100.00
7026;BME280;3554;42.132;24.786;2022-09-30T08:13:31;99272.94;;;24.39;100.00
7026;BME280;3554;42.132;24.786;2022-09-30T08:15:58;99283.22;;;24.16;100.00
7026;BME280;3554;42.132;24.786;2022-09-30T08:18:25;99292.03;;;23.99;100.00
7026;BME280;3554;42.132;24.786;2022-09-30T08:20:52;99297.66;;;24.33;100.00
7026;BME280;3554;42.132;24.786;2022-09-30T08:23:19;99297.13;;;24.47;100.00
7026;BME280;3554;42.132;24.786;2022-09-30T08:25:47;99300.88;;;24.54;100.00
7026;BME280;3554;42.132;24.786;2022-09-30T08:28:14;99292.72;;;24.73;100.00
7026;BME280;3554;42.132;24.786;2022-09-30T08:30:42;99293.16;;;24.69;100.00
7026;BME280;3554;42.132;24.786;2022-09-30T08:33:09;99295.44;;;24.64;100.00
7026;BME280;3554;42.132;24.786;2022-09-30T08:35:36;99292.03;;;24.71;100.00
7026;BME280;3554;42.132;24.786;2022-09-30T08:38:03;99294.31;;;24.66;100.00
7026;BME280;3554;42.132;24.786;2022-09-30T08:40:31;99255.72;;;23.97;100.00
7026;BME280;3554;42.132;24.786;2022-09-30T08:43:11;99286.31;;;24.39;100.00
7026;BME280;3554;42.132;24.786;2022-09-30T08:45:49;99274.72;;;24.83;100.00
7026;BME280;3554;42.132;24.786;2022-09-30T08:48:28;99283.88;;;25.16;100.00
7026;BME280;3554;42.132;24.786;2022-09-30T08:51:05;99280.59;;;25.22;100.00
7026;BME280;3554;42.132;24.786;2022-09-30T08:53:36;99276.47;;;24.92;100.00
7026;BME280;3554;42.132;24.786;2022-09-30T08:56:05;99282.09;;;24.81;100.00
7026;BME280;3554;42.132;24.786;2022-09-30T08:58:36;99287.59;;;24.80;100.00
7026;BME280;3554;42.132;24.786;2022-09-30T09:01:13;99290.28;;;25.23;100.00
7026;BME280;3554;42.132;24.786;2022-09-30T09:03:42;99285.47;;;25.26;100.00
7026;BME280;3554;42.132;24.786;2022-09-30T09:06:19;99287.56;;;25.15;100.00
7026;BME280;3554;42.132;24.786;2022-09-30T09:08:54;99302.47;;;25.17;100.00
7026;BME280;3554;42.132;24.786;2022-09-30T09:11:36;99298.50;;;25.21;100.00
7026;BME280;3554;42.132;24.786;2022-09-30T09:14:12;99294.59;;;25.16;100.00
7026;BME280;3554;42.132;24.786;2022-09-30T09:16:49;99293.47;;;25.44;100.00
7026;BME280;3554;42.132;24.786;2022-09-30T09:19:25;99307.25;;;25.75;100.00
7026;BME280;3554;42.132;24.786;2022-09-30T09:21:57;99313.06;;;25.96;100.00
7026;BME280;3554;42.132;24.786;2022-09-30T09:24:35;99309.84;;;26.18;100.00
7026;BME280;3554;42.132;24.786;2022-09-30T09:27:15;99303.97;;;26.22;100.00
7026;BME280;3554;42.132;24.786;2022-09-30T09:29:51;99303.09;;;26.06;100.00
7026;BME280;3554;42.132;24.786;2022-09-30T09:32:24;99307.34;;;26.24;100.00
7026;BME280;3554;42.132;24.786;2022-09-30T09:34:57;99301.88;;;26.50;100.00
7026;BME280;3554;42.132;24.786;2022-09-30T09:37:28;99309.38;;;26.38;100.00
7026;BME280;3554;42.132;24.786;2022-09-30T09:40:18;99313.88;;;26.22;100.00
7026;BME280;3554;42.132;24.786;2022-09-30T09:42:59;99316.13;;;26.42;100.00
7026;BME280;3554;42.132;24.786;2022-09-30T09:45:36;99315.47;;;26.57;100.00
7026;BME280;3554;42.132;24.786;2022-09-30T09:48:07;99312.13;;;26.55;100.00
7026;BME280;3554;42.132;24.786;2022-09-30T09:50:45;99309.16;;;26.74;100.00
7026;BME280;3554;42.132;24.786;2022-09-30T09:53:37;99307.66;;;26.79;100.00
7026;BME280;3554;42.132;24.786;2022-09-30T09:56:12;99302.66;;;26.84;100.00
7026;BME280;3554;42.132;24.786;2022-09-30T10:01:48;99282.25;;;26.50;100.00
7026;BME280;3554;42.132;24.786;2022-09-30T10:04:25;99245.97;;;26.37;100.00
7026;BME280;3554;42.132;24.786;2022-09-30T10:06:55;99297.09;;;26.94;100.00
7026;BME280;3554;42.132;24.786;2022-09-30T10:09:31;99300.63;;;27.02;98.71
7026;BME280;3554;42.132;24.786;2022-09-30T10:12:24;99301.78;;;27.08;100.00
7026;BME280;3554;42.132;24.786;2022-09-30T10:14:56;99290.22;;;26.99;99.49
7026;BME280;3554;42.132;24.786;2022-09-30T10:17:26;99295.41;;;27.17;100.00
7026;BME280;3554;42.132;24.786;2022-09-30T10:19:59;99302.16;;;27.37;98.17
7026;BME280;3554;42.132;24.786;2022-09-30T10:22:28;99292.00;;;27.63;96.51
7026;BME280;3554;42.132;24.786;2022-09-30T10:25:15;99300.22;;;27.78;95.57
7026;BME280;3554;42.132;24.786;2022-09-30T10:27:51;99293.31;;;27.75;95.41
7026;BME280;3554;42.132;24.786;2022-09-30T10:30:43;99288.47;;;27.79;91.56
7026;BME280;3554;42.132;24.786;2022-09-30T10:33:15;99292.53;;;27.51;89.90
7026;BME280;3554;42.132;24.786;2022-09-30T10:35:56;99286.34;;;27.50;90.87
7026;BME280;3554;42.132;24.786;2022-09-30T10:38:26;99286.16;;;27.52;92.55
7026;BME280;3554;42.132;24.786;2022-09-30T10:40:54;99281.47;;;27.29;94.20
7026;BME280;3554;42.132;24.786;2022-09-30T10:43:24;99276.94;;;27.46;92.83
7026;BME280;3554;42.132;24.786;2022-09-30T10:45:52;99275.06;;;27.63;91.40
7026;BME280;3554;42.132;24.786;2022-09-30T10:48:22;99271.78;;;27.75;89.87
7026;BME280;3554;42.132;24.786;2022-09-30T10:50:52;99275.41;;;27.52;90.85
7026;BME280;3554;42.132;24.786;2022-09-30T10:53:23;99275.00;;;27.71;91.87
7026;BME280;3554;42.132;24.786;2022-09-30T10:55:50;99283.38;;;27.92;90.27
7026;BME280;3554;42.132;24.786;2022-09-30T10:58:25;99276.44;;;28.05;88.53
7026;BME280;3554;42.132;24.786;2022-09-30T11:00:58;99255.75;;;27.90;85.87
7026;BME280;3554;42.132;24.786;2022-09-30T11:03:33;99258.28;;;27.99;86.03
7026;BME280;3554;42.132;24.786;2022-09-30T11:06:02;99269.41;;;27.96;85.08
7026;BME280;3554;42.132;24.786;2022-09-30T11:08:34;99264.84;;;27.97;85.74
7026;BME280;3554;42.132;24.786;2022-09-30T11:11:06;99260.13;;;27.99;87.02
7026;BME280;3554;42.132;24.786;2022-09-30T11:13:38;99268.22;;;27.99;86.31
7026;BME280;3554;42.132;24.786;2022-09-30T11:16:12;99266.88;;;27.95;86.45
7026;BME280;3554;42.132;24.786;2022-09-30T11:18:46;99265.63;;;28.13;84.10
7026;BME280;3554;42.132;24.786;2022-09-30T11:21:19;99261.31;;;28.27;82.86
7026;BME280;3554;42.132;24.786;2022-09-30T11:23:51;99259.94;;;28.39;82.13
7026;BME280;3554;42.132;24.786;2022-09-30T11:26:27;99258.91;;;28.09;84.76
7026;BME280;3554;42.132;24.786;2022-09-30T11:29:08;99252.63;;;28.25;83.64
7026;BME280;3554;42.132;24.786;2022-09-30T11:31:45;99257.28;;;28.31;82.83
7026;BME280;3554;42.132;24.786;2022-09-30T11:34:30;99260.69;;;28.25;83.23
7026;BME280;3554;42.132;24.786;2022-09-30T11:37:07;99260.22;;;28.21;84.01
7026;BME280;3554;42.132;24.786;2022-09-30T11:42:41;99240.84;;;28.18;81.05
7026;BME280;3554;42.132;24.786;2022-09-30T11:45:21;99243.72;;;28.16;82.09
7026;BME280;3554;42.132;24.786;2022-09-30T11:48:13;99237.03;;;28.12;80.42
7026;BME280;3554;42.132;24.786;2022-09-30T11:50:53;99234.94;;;28.22;81.62
7026;BME280;3554;42.132;24.786;2022-09-30T11:53:33;99241.91;;;28.39;76.78
7026;BME280;3554;42.132;24.786;2022-09-30T11:56:18;99236.84;;;28.44;77.21
7026;BME280;3554;42.132;24.786;2022-09-30T11:58:51;99227.28;;;28.34;80.05
7026;BME280;3554;42.132;24.786;2022-09-30T12:01:24;99236.63;;;28.54;78.00
7026;BME280;3554;42.132;24.786;2022-09-30T12:04:00;99247.84;;;28.35;78.43
7026;BME280;3554;42.132;24.786;2022-09-30T12:06:32;99221.50;;;28.45;78.01
7026;BME280;3554;42.132;24.786;2022-09-30T12:09:07;99239.59;;;28.59;74.95
7026;BME280;3554;42.132;24.786;2022-09-30T12:11:43;99243.22;;;28.52;71.82
7026;BME280;3554;42.132;24.786;2022-09-30T12:14:29;99239.28;;;28.62;70.71
7026;BME280;3554;42.132;24.786;2022-09-30T12:17:01;99245.81;;;28.68;68.40
7026;BME280;3554;42.132;24.786;2022-09-30T12:19:35;99239.13;;;28.56;68.30
7026;BME280;3554;42.132;24.786;2022-09-30T12:22:06;99236.28;;;28.80;68.77
7026;BME280;3554;42.132;24.786;2022-09-30T12:24:39;99244.94;;;28.90;68.97
7026;BME280;3554;42.132;24.786;2022-09-30T12:27:24;99242.06;;;28.91;68.31
7026;BME280;3554;42.132;24.786;2022-09-30T12:29:58;99239.31;;;28.99;70.33
7026;BME280;3554;42.132;24.786;2022-09-30T12:33:10;99250.13;;;28.91;69.16
7026;BME280;3554;42.132;24.786;2022-09-30T12:36:08;99238.94;;;29.02;67.10
7026;BME280;3554;42.132;24.786;2022-09-30T12:38:59;99236.00;;;28.89;68.81
7026;BME280;3554;42.132;24.786;2022-09-30T12:41:45;99244.34;;;28.57;69.54
7026;BME280;3554;42.132;24.786;2022-09-30T12:47:29;99238.66;;;28.75;69.21
7026;BME280;3554;42.132;24.786;2022-09-30T12:49:57;99238.22;;;28.86;67.92
7026;BME280;3554;42.132;24.786;2022-09-30T12:52:30;99237.41;;;29.00;66.58
7026;BME280;3554;42.132;24.786;2022-09-30T12:55:00;99244.31;;;29.02;64.82
7026;BME280;3554;42.132;24.786;2022-09-30T12:57:31;99233.72;;;29.01;64.33
7026;BME280;3554;42.132;24.786;2022-09-30T13:00:03;99230.47;;;29.05;65.71
7026;BME280;3554;42.132;24.786;2022-09-30T13:02:34;99245.16;;;29.03;64.77
7026;BME280;3554;42.132;24.786;2022-09-30T13:11:05;99233.00;;;29.07;63.73
7026;BME280;3554;42.132;24.786;2022-09-30T13:13:59;99240.97;;;29.23;62.91
7026;BME280;3554;42.132;24.786;2022-09-30T13:19:44;99194.72;;;28.74;63.54
7026;BME280;3554;42.132;24.786;2022-09-30T13:25:18;99224.00;;;29.14;61.15
7026;BME280;3554;42.132;24.786;2022-09-30T13:27:46;99247.47;;;29.28;61.16
7026;BME280;3554;42.132;24.786;2022-09-30T13:30:38;99252.47;;;29.17;61.64
7026;BME280;3554;42.132;24.786;2022-09-30T13:33:28;99254.72;;;29.42;60.43
7026;BME280;3554;42.132;24.786;2022-09-30T13:36:06;99265.06;;;29.53;58.20
7026;BME280;3554;42.132;24.786;2022-09-30T13:38:37;99261.09;;;29.49;59.48
7026;BME280;3554;42.132;24.786;2022-09-30T13:41:13;99259.31;;;29.42;58.28
7026;BME280;3554;42.132;24.786;2022-09-30T13:43:44;99254.00;;;29.48;58.58
7026;BME280;3554;42.132;24.786;2022-09-30T13:46:26;99250.38;;;29.41;59.69
7026;BME280;3554;42.132;24.786;2022-09-30T13:48:59;99259.31;;;29.42;58.98
7026;BME280;3554;42.132;24.786;2022-09-30T13:51:29;99258.28;;;29.43;58.64
7026;BME280;3554;42.132;24.786;2022-09-30T13:53:58;99256.25;;;29.60;59.10
7026;BME280;3554;42.132;24.786;2022-09-30T13:56:33;99250.88;;;29.74;57.45
7026;BME280;3554;42.132;24.786;2022-09-30T13:59:18;99266.13;;;29.82;59.04
7026;BME280;3554;42.132;24.786;2022-09-30T14:02:07;99264.72;;;29.86;56.10
7026;BME280;3554;42.132;24.786;2022-09-30T14:07:48;99271.72;;;29.66;56.34